sensor_id;sensor_type;location;lat;lon;timestamp;P1;durP1;ratioP1;P2;durP2;ratioP2
26965;SDS011;14522;52.068;4.414;2024-01-30T00:01:21;8.98;;;5.40;;
26965;SDS011;14522;52.068;4.414;2024-01-30T00:03:48;10.27;;;5.80;;
26965;SDS011;14522;52.068;4.414;2024-01-30T00:06:14;11.10;;;6.47;;
26965;SDS011;14522;52.068;4.414;2024-01-30T00:08:44;9.25;;;5.72;;
26965;SDS011;14522;52.068;4.414;2024-01-30T00:11:12;13.10;;;5.35;;
26965;SDS011;14522;52.068;4.414;2024-01-30T00:13:39;9.77;;;5.22;;
26965;SDS011;14522;52.068;4.414;2024-01-30T00:16:05;9.93;;;5.05;;
26965;SDS011;14522;52.068;4.414;2024-01-30T00:18:32;11.50;;;5.78;;
26965;SDS011;14522;52.068;4.414;2024-01-30T00:20:58;7.90;;;5.18;;
26965;SDS011;14522;52.068;4.414;2024-01-30T00:23:25;8.18;;;5.53;;
26965;SDS011;14522;52.068;4.414;2024-01-30T00:25:51;9.88;;;5.63;;
26965;SDS011;14522;52.068;4.414;2024-01-30T00:28:18;8.52;;;5.25;;
26965;SDS011;14522;52.068;4.414;2024-01-30T00:30:44;12.73;;;5.47;;
26965;SDS011;14522;52.068;4.414;2024-01-30T00:33:11;9.30;;;5.70;;
26965;SDS011;14522;52.068;4.414;2024-01-30T00:35:37;10.07;;;6.40;;
26965;SDS011;14522;52.068;4.414;2024-01-30T00:38:03;9.63;;;5.28;;
26965;SDS011;14522;52.068;4.414;2024-01-30T00:40:30;8.90;;;4.78;;
26965;SDS011;14522;52.068;4.414;2024-01-30T00:42:56;8.60;;;5.20;;
26965;SDS011;14522;52.068;4.414;2024-01-30T00:45:23;10.80;;;5.18;;
26965;SDS011;14522;52.068;4.414;2024-01-30T00:47:50;9.20;;;5.63;;
26965;SDS011;14522;52.068;4.414;2024-01-30T00:50:16;14.38;;;5.32;;
26965;SDS011;14522;52.068;4.414;2024-01-30T00:52:42;7.18;;;4.32;;
26965;SDS011;14522;52.068;4.414;2024-01-30T00:55:11;9.20;;;5.43;;
26965;SDS011;14522;52.068;4.414;2024-01-30T00:57:38;6.68;;;5.20;;
26965;SDS011;14522;52.068;4.414;2024-01-30T01:00:04;10.75;;;4.85;;
26965;SDS011;14522;52.068;4.414;2024-01-30T01:02:34;10.13;;;5.07;;
26965;SDS011;14522;52.068;4.414;2024-01-30T01:05:01;6.68;;;4.80;;
26965;SDS011;14522;52.068;4.414;2024-01-30T01:07:28;6.72;;;4.68;;
26965;SDS011;14522;52.068;4.414;2024-01-30T01:09:54;6.43;;;4.10;;
26965;SDS011;14522;52.068;4.414;2024-01-30T01:12:21;9.15;;;4.72;;
26965;SDS011;14522;52.068;4.414;2024-01-30T01:14:47;8.82;;;5.45;;
26965;SDS011;14522;52.068;4.414;2024-01-30T01:17:13;7.15;;;4.03;;
26965;SDS011;14522;52.068;4.414;2024-01-30T01:19:40;6.47;;;4.43;;
26965;SDS011;14522;52.068;4.414;2024-01-30T01:22:06;6.93;;;4.45;;
26965;SDS011;14522;52.068;4.414;2024-01-30T01:24:33;8.40;;;4.47;;
26965;SDS011;14522;52.068;4.414;2024-01-30T01:27:00;7.38;;;4.20;;
26965;SDS011;14522;52.068;4.414;2024-01-30T01:29:26;10.05;;;4.47;;
26965;SDS011;14522;52.068;4.414;2024-01-30T01:31:55;13.40;;;4.90;;
26965;SDS011;14522;52.068;4.414;2024-01-30T01:34:23;8.43;;;4.70;;
26965;SDS011;14522;52.068;4.414;2024-01-30T01:36:56;6.45;;;4.97;;
26965;SDS011;14522;52.068;4.414;2024-01-30T01:39:22;6.82;;;4.18;;
26965;SDS011;14522;52.068;4.414;2024-01-30T01:41:52;8.50;;;4.32;;
26965;SDS011;14522;52.068;4.414;2024-01-30T01:44:18;7.53;;;4.72;;
26965;SDS011;14522;52.068;4.414;2024-01-30T01:46:45;10.30;;;5.30;;
26965;SDS011;14522;52.068;4.414;2024-01-30T01:49:12;8.25;;;4.93;;
26965;SDS011;14522;52.068;4.414;2024-01-30T01:51:38;6.05;;;4.35;;
26965;SDS011;14522;52.068;4.414;2024-01-30T01:54:07;8.13;;;5.10;;
26965;SDS011;14522;52.068;4.414;2024-01-30T01:56:34;9.38;;;4.50;;
26965;SDS011;14522;52.068;4.414;2024-01-30T01:59:04;6.78;;;4.70;;
26965;SDS011;14522;52.068;4.414;2024-01-30T02:01:31;8.48;;;4.38;;
26965;SDS011;14522;52.068;4.414;2024-01-30T02:03:59;8.80;;;4.85;;
26965;SDS011;14522;52.068;4.414;2024-01-30T02:06:26;9.75;;;4.20;;
26965;SDS011;14522;52.068;4.414;2024-01-30T02:08:52;10.07;;;4.82;;
26965;SDS011;14522;52.068;4.414;2024-01-30T02:11:22;9.02;;;5.05;;
26965;SDS011;14522;52.068;4.414;2024-01-30T02:13:49;8.80;;;5.32;;
26965;SDS011;14522;52.068;4.414;2024-01-30T02:16:16;6.30;;;4.75;;
26965;SDS011;14522;52.068;4.414;2024-01-30T02:18:46;9.77;;;4.90;;
26965;SDS011;14522;52.068;4.414;2024-01-30T02:21:15;10.15;;;4.88;;
26965;SDS011;14522;52.068;4.414;2024-01-30T02:23:42;10.18;;;5.30;;
26965;SDS011;14522;52.068;4.414;2024-01-30T02:26:09;9.55;;;4.45;;
26965;SDS011;14522;52.068;4.414;2024-01-30T02:28:35;8.80;;;5.15;;
26965;SDS011;14522;52.068;4.414;2024-01-30T02:31:02;7.93;;;4.68;;
26965;SDS011;14522;52.068;4.414;2024-01-30T02:33:28;11.13;;;4.85;;
26965;SDS011;14522;52.068;4.414;2024-01-30T02:35:55;10.60;;;4.93;;
26965;SDS011;14522;52.068;4.414;2024-01-30T02:38:21;9.00;;;5.00;;
26965;SDS011;14522;52.068;4.414;2024-01-30T02:40:48;11.20;;;5.13;;
26965;SDS011;14522;52.068;4.414;2024-01-30T02:43:14;6.85;;;4.47;;
26965;SDS011;14522;52.068;4.414;2024-01-30T02:45:41;9.95;;;5.13;;
26965;SDS011;14522;52.068;4.414;2024-01-30T02:48:07;6.68;;;4.18;;
26965;SDS011;14522;52.068;4.414;2024-01-30T02:50:34;10.00;;;4.63;;
26965;SDS011;14522;52.068;4.414;2024-01-30T02:53:00;11.77;;;5.18;;
26965;SDS011;14522;52.068;4.414;2024-01-30T02:55:27;10.02;;;4.45;;
26965;SDS011;14522;52.068;4.414;2024-01-30T02:57:53;10.88;;;4.78;;
26965;SDS011;14522;52.068;4.414;2024-01-30T03:00:20;6.07;;;3.55;;
26965;SDS011;14522;52.068;4.414;2024-01-30T03:02:46;7.70;;;4.53;;
26965;SDS011;14522;52.068;4.414;2024-01-30T03:05:13;8.85;;;4.65;;
26965;SDS011;14522;52.068;4.414;2024-01-30T03:07:39;10.50;;;4.97;;
26965;SDS011;14522;52.068;4.414;2024-01-30T03:10:06;7.18;;;4.57;;
26965;SDS011;14522;52.068;4.414;2024-01-30T03:12:32;8.38;;;4.38;;
26965;SDS011;14522;52.068;4.414;2024-01-30T03:14:59;5.97;;;3.75;;
26965;SDS011;14522;52.068;4.414;2024-01-30T03:17:25;6.35;;;4.13;;
26965;SDS011;14522;52.068;4.414;2024-01-30T03:19:52;9.50;;;5.05;;
26965;SDS011;14522;52.068;4.414;2024-01-30T03:22:18;9.85;;;4.45;;
26965;SDS011;14522;52.068;4.414;2024-01-30T03:24:44;6.30;;;4.20;;
26965;SDS011;14522;52.068;4.414;2024-01-30T03:27:11;8.00;;;4.75;;
26965;SDS011;14522;52.068;4.414;2024-01-30T03:29:37;6.93;;;4.55;;
26965;SDS011;14522;52.068;4.414;2024-01-30T03:32:04;8.00;;;4.75;;
26965;SDS011;14522;52.068;4.414;2024-01-30T03:34:30;8.20;;;4.53;;
26965;SDS011;14522;52.068;4.414;2024-01-30T03:36:57;7.20;;;4.75;;
26965;SDS011;14522;52.068;4.414;2024-01-30T03:39:24;7.00;;;4.43;;
26965;SDS011;14522;52.068;4.414;2024-01-30T03:41:50;7.85;;;4.75;;
26965;SDS011;14522;52.068;4.414;2024-01-30T03:44:17;9.35;;;4.55;;
26965;SDS011;14522;52.068;4.414;2024-01-30T03:46:43;11.05;;;4.78;;
26965;SDS011;14522;52.068;4.414;2024-01-30T03:49:10;6.82;;;4.68;;
26965;SDS011;14522;52.068;4.414;2024-01-30T03:51:36;8.45;;;4.72;;
26965;SDS011;14522;52.068;4.414;2024-01-30T03:54:03;7.07;;;4.65;;
26965;SDS011;14522;52.068;4.414;2024-01-30T03:56:29;7.57;;;4.47;;
26965;SDS011;14522;52.068;4.414;2024-01-30T03:58:55;7.00;;;4.88;;
26965;SDS011;14522;52.068;4.414;2024-01-30T04:01:23;7.18;;;4.60;;
26965;SDS011;14522;52.068;4.414;2024-01-30T04:03:49;7.40;;;4.72;;
26965;SDS011;14522;52.068;4.414;2024-01-30T04:06:16;4.10;;;3.10;;
26965;SDS011;14522;52.068;4.414;2024-01-30T04:08:42;8.98;;;4.57;;
26965;SDS011;14522;52.068;4.414;2024-01-30T04:11:09;9.68;;;4.82;;
26965;SDS011;14522;52.068;4.414;2024-01-30T04:13:35;7.38;;;4.53;;
26965;SDS011;14522;52.068;4.414;2024-01-30T04:16:02;10.32;;;5.20;;
26965;SDS011;14522;52.068;4.414;2024-01-30T04:18:29;7.93;;;4.57;;
26965;SDS011;14522;52.068;4.414;2024-01-30T04:20:55;9.80;;;4.20;;
26965;SDS011;14522;52.068;4.414;2024-01-30T04:23:22;10.88;;;4.57;;
26965;SDS011;14522;52.068;4.414;2024-01-30T04:25:48;9.48;;;5.18;;
26965;SDS011;14522;52.068;4.414;2024-01-30T04:28:15;10.10;;;5.22;;
26965;SDS011;14522;52.068;4.414;2024-01-30T04:30:41;9.38;;;4.57;;
26965;SDS011;14522;52.068;4.414;2024-01-30T04:33:08;8.15;;;4.10;;
26965;SDS011;14522;52.068;4.414;2024-01-30T04:35:35;8.80;;;4.78;;
26965;SDS011;14522;52.068;4.414;2024-01-30T04:38:02;7.22;;;4.13;;
26965;SDS011;14522;52.068;4.414;2024-01-30T04:40:28;8.43;;;4.40;;
26965;SDS011;14522;52.068;4.414;2024-01-30T04:42:55;12.02;;;4.32;;
26965;SDS011;14522;52.068;4.414;2024-01-30T04:45:21;9.10;;;4.85;;
26965;SDS011;14522;52.068;4.414;2024-01-30T04:47:47;10.82;;;4.60;;
26965;SDS011;14522;52.068;4.414;2024-01-30T04:50:14;11.13;;;4.20;;
26965;SDS011;14522;52.068;4.414;2024-01-30T04:52:40;6.80;;;4.28;;
26965;SDS011;14522;52.068;4.414;2024-01-30T04:55:07;9.52;;;4.95;;
26965;SDS011;14522;52.068;4.414;2024-01-30T04:57:33;10.45;;;4.80;;
26965;SDS011;14522;52.068;4.414;2024-01-30T05:00:00;5.75;;;4.03;;
26965;SDS011;14522;52.068;4.414;2024-01-30T05:02:27;9.85;;;5.00;;
26965;SDS011;14522;52.068;4.414;2024-01-30T05:04:53;9.20;;;4.68;;
26965;SDS011;14522;52.068;4.414;2024-01-30T05:07:20;8.63;;;4.95;;
26965;SDS011;14522;52.068;4.414;2024-01-30T05:09:46;7.97;;;4.47;;
26965;SDS011;14522;52.068;4.414;2024-01-30T05:12:13;14.95;;;5.00;;
26965;SDS011;14522;52.068;4.414;2024-01-30T05:14:39;14.27;;;4.82;;
26965;SDS011;14522;52.068;4.414;2024-01-30T05:17:06;10.52;;;5.15;;
26965;SDS011;14522;52.068;4.414;2024-01-30T05:19:34;8.27;;;4.47;;
26965;SDS011;14522;52.068;4.414;2024-01-30T05:22:00;8.07;;;4.53;;
26965;SDS011;14522;52.068;4.414;2024-01-30T05:24:27;10.68;;;5.00;;
26965;SDS011;14522;52.068;4.414;2024-01-30T05:26:53;10.10;;;5.13;;
26965;SDS011;14522;52.068;4.414;2024-01-30T05:29:19;8.65;;;4.65;;
26965;SDS011;14522;52.068;4.414;2024-01-30T05:31:46;7.70;;;4.55;;
26965;SDS011;14522;52.068;4.414;2024-01-30T05:34:12;6.90;;;4.57;;
26965;SDS011;14522;52.068;4.414;2024-01-30T05:36:39;9.38;;;4.97;;
26965;SDS011;14522;52.068;4.414;2024-01-30T05:39:05;7.25;;;3.97;;
26965;SDS011;14522;52.068;4.414;2024-01-30T05:41:34;9.55;;;4.63;;
26965;SDS011;14522;52.068;4.414;2024-01-30T05:44:01;6.68;;;4.28;;
26965;SDS011;14522;52.068;4.414;2024-01-30T05:46:27;10.48;;;4.35;;
26965;SDS011;14522;52.068;4.414;2024-01-30T05:48:53;12.52;;;4.38;;
26965;SDS011;14522;52.068;4.414;2024-01-30T05:51:20;12.40;;;4.53;;
26965;SDS011;14522;52.068;4.414;2024-01-30T05:53:46;8.52;;;4.03;;
26965;SDS011;14522;52.068;4.414;2024-01-30T05:56:13;6.85;;;3.95;;
26965;SDS011;14522;52.068;4.414;2024-01-30T05:58:39;12.43;;;5.40;;
26965;SDS011;14522;52.068;4.414;2024-01-30T06:01:08;7.60;;;4.13;;
26965;SDS011;14522;52.068;4.414;2024-01-30T06:03:35;9.50;;;4.05;;
26965;SDS011;14522;52.068;4.414;2024-01-30T06:06:01;9.13;;;4.28;;
26965;SDS011;14522;52.068;4.414;2024-01-30T06:08:28;7.90;;;4.35;;
26965;SDS011;14522;52.068;4.414;2024-01-30T06:10:54;7.53;;;3.55;;
26965;SDS011;14522;52.068;4.414;2024-01-30T06:13:21;8.15;;;4.35;;
26965;SDS011;14522;52.068;4.414;2024-01-30T06:15:47;9.57;;;4.28;;
26965;SDS011;14522;52.068;4.414;2024-01-30T06:18:14;9.52;;;4.40;;
26965;SDS011;14522;52.068;4.414;2024-01-30T06:20:40;13.07;;;5.10;;
26965;SDS011;14522;52.068;4.414;2024-01-30T06:23:07;12.15;;;4.78;;
26965;SDS011;14522;52.068;4.414;2024-01-30T06:25:33;9.60;;;3.97;;
26965;SDS011;14522;52.068;4.414;2024-01-30T06:28:00;9.18;;;3.80;;
26965;SDS011;14522;52.068;4.414;2024-01-30T06:30:26;7.53;;;3.13;;
26965;SDS011;14522;52.068;4.414;2024-01-30T06:32:53;9.50;;;3.90;;
26965;SDS011;14522;52.068;4.414;2024-01-30T06:35:19;10.68;;;4.05;;
26965;SDS011;14522;52.068;4.414;2024-01-30T06:37:46;10.18;;;3.40;;
26965;SDS011;14522;52.068;4.414;2024-01-30T06:40:12;10.98;;;4.40;;
26965;SDS011;14522;52.068;4.414;2024-01-30T06:42:39;10.60;;;4.30;;
26965;SDS011;14522;52.068;4.414;2024-01-30T06:45:05;7.95;;;3.67;;
26965;SDS011;14522;52.068;4.414;2024-01-30T06:47:32;6.60;;;4.20;;
26965;SDS011;14522;52.068;4.414;2024-01-30T06:49:58;9.98;;;3.67;;
26965;SDS011;14522;52.068;4.414;2024-01-30T06:52:26;7.45;;;3.88;;
26965;SDS011;14522;52.068;4.414;2024-01-30T06:54:52;8.80;;;4.03;;
26965;SDS011;14522;52.068;4.414;2024-01-30T06:57:19;9.52;;;4.38;;
26965;SDS011;14522;52.068;4.414;2024-01-30T06:59:45;13.80;;;4.78;;
26965;SDS011;14522;52.068;4.414;2024-01-30T07:02:11;8.80;;;4.15;;
26965;SDS011;14522;52.068;4.414;2024-01-30T07:04:38;8.40;;;4.68;;
26965;SDS011;14522;52.068;4.414;2024-01-30T07:07:11;10.18;;;5.13;;
26965;SDS011;14522;52.068;4.414;2024-01-30T07:09:39;8.88;;;4.50;;
26965;SDS011;14522;52.068;4.414;2024-01-30T07:12:06;8.38;;;4.47;;
26965;SDS011;14522;52.068;4.414;2024-01-30T07:14:33;9.27;;;4.15;;
26965;SDS011;14522;52.068;4.414;2024-01-30T07:16:59;12.18;;;4.55;;
26965;SDS011;14522;52.068;4.414;2024-01-30T07:19:26;8.48;;;4.68;;
26965;SDS011;14522;52.068;4.414;2024-01-30T07:21:52;9.52;;;4.55;;
26965;SDS011;14522;52.068;4.414;2024-01-30T07:24:19;10.80;;;4.47;;
26965;SDS011;14522;52.068;4.414;2024-01-30T07:26:45;9.02;;;4.25;;
26965;SDS011;14522;52.068;4.414;2024-01-30T07:29:12;10.45;;;4.32;;
26965;SDS011;14522;52.068;4.414;2024-01-30T07:31:38;11.13;;;4.30;;
26965;SDS011;14522;52.068;4.414;2024-01-30T07:34:04;10.32;;;4.88;;
26965;SDS011;14522;52.068;4.414;2024-01-30T07:36:31;13.70;;;4.55;;
26965;SDS011;14522;52.068;4.414;2024-01-30T07:38:58;10.95;;;4.57;;
26965;SDS011;14522;52.068;4.414;2024-01-30T07:41:24;14.15;;;4.30;;
26965;SDS011;14522;52.068;4.414;2024-01-30T07:43:51;9.60;;;4.18;;
26965;SDS011;14522;52.068;4.414;2024-01-30T07:46:18;15.38;;;5.30;;
26965;SDS011;14522;52.068;4.414;2024-01-30T07:48:44;13.57;;;5.45;;
26965;SDS011;14522;52.068;4.414;2024-01-30T07:51:11;10.23;;;4.72;;
26965;SDS011;14522;52.068;4.414;2024-01-30T07:53:37;10.77;;;4.45;;
26965;SDS011;14522;52.068;4.414;2024-01-30T07:56:05;11.55;;;4.53;;
26965;SDS011;14522;52.068;4.414;2024-01-30T07:58:31;13.10;;;4.60;;
26965;SDS011;14522;52.068;4.414;2024-01-30T08:00:58;11.27;;;4.38;;
26965;SDS011;14522;52.068;4.414;2024-01-30T08:03:26;9.85;;;5.45;;
26965;SDS011;14522;52.068;4.414;2024-01-30T08:05:53;14.68;;;4.53;;
26965;SDS011;14522;52.068;4.414;2024-01-30T08:08:19;9.55;;;4.60;;
26965;SDS011;14522;52.068;4.414;2024-01-30T08:10:46;9.73;;;4.75;;
26965;SDS011;14522;52.068;4.414;2024-01-30T08:13:12;9.07;;;4.90;;
26965;SDS011;14522;52.068;4.414;2024-01-30T08:15:39;11.27;;;4.47;;
26965;SDS011;14522;52.068;4.414;2024-01-30T08:18:05;11.30;;;5.00;;
26965;SDS011;14522;52.068;4.414;2024-01-30T08:20:33;13.18;;;5.38;;
26965;SDS011;14522;52.068;4.414;2024-01-30T08:22:59;13.85;;;5.07;;
26965;SDS011;14522;52.068;4.414;2024-01-30T08:25:26;9.85;;;5.53;;
26965;SDS011;14522;52.068;4.414;2024-01-30T08:27:53;12.23;;;5.95;;
26965;SDS011;14522;52.068;4.414;2024-01-30T08:30:20;10.88;;;5.55;;
26965;SDS011;14522;52.068;4.414;2024-01-30T08:32:47;10.10;;;4.80;;
26965;SDS011;14522;52.068;4.414;2024-01-30T08:35:13;13.18;;;5.95;;
26965;SDS011;14522;52.068;4.414;2024-01-30T08:37:41;11.20;;;5.38;;
26965;SDS011;14522;52.068;4.414;2024-01-30T08:40:08;15.35;;;5.30;;
26965;SDS011;14522;52.068;4.414;2024-01-30T08:42:35;9.60;;;4.82;;
26965;SDS011;14522;52.068;4.414;2024-01-30T08:45:01;12.05;;;5.55;;
26965;SDS011;14522;52.068;4.414;2024-01-30T08:47:28;10.63;;;5.10;;
26965;SDS011;14522;52.068;4.414;2024-01-30T08:49:54;11.70;;;5.43;;
26965;SDS011;14522;52.068;4.414;2024-01-30T08:52:21;12.70;;;5.32;;
26965;SDS011;14522;52.068;4.414;2024-01-30T08:54:47;8.82;;;4.85;;
26965;SDS011;14522;52.068;4.414;2024-01-30T08:57:14;10.18;;;5.13;;
26965;SDS011;14522;52.068;4.414;2024-01-30T08:59:40;9.52;;;4.82;;
26965;SDS011;14522;52.068;4.414;2024-01-30T09:02:07;10.40;;;5.10;;
26965;SDS011;14522;52.068;4.414;2024-01-30T09:04:38;12.73;;;5.05;;
26965;SDS011;14522;52.068;4.414;2024-01-30T09:07:05;12.40;;;4.50;;
26965;SDS011;14522;52.068;4.414;2024-01-30T09:09:35;10.85;;;4.88;;
26965;SDS011;14522;52.068;4.414;2024-01-30T09:12:02;15.02;;;4.85;;
26965;SDS011;14522;52.068;4.414;2024-01-30T09:14:33;6.70;;;4.05;;
26965;SDS011;14522;52.068;4.414;2024-01-30T09:16:59;11.75;;;4.75;;
26965;SDS011;14522;52.068;4.414;2024-01-30T09:19:26;10.07;;;4.32;;
26965;SDS011;14522;52.068;4.414;2024-01-30T09:21:53;11.35;;;4.85;;
26965;SDS011;14522;52.068;4.414;2024-01-30T09:24:19;8.50;;;3.45;;
26965;SDS011;14522;52.068;4.414;2024-01-30T09:26:46;9.93;;;3.30;;
26965;SDS011;14522;52.068;4.414;2024-01-30T09:29:12;12.15;;;3.03;;
26965;SDS011;14522;52.068;4.414;2024-01-30T09:31:38;8.73;;;2.40;;
26965;SDS011;14522;52.068;4.414;2024-01-30T09:34:05;5.13;;;1.70;;
26965;SDS011;14522;52.068;4.414;2024-01-30T09:36:31;7.65;;;2.17;;
26965;SDS011;14522;52.068;4.414;2024-01-30T09:38:58;8.25;;;2.38;;
26965;SDS011;14522;52.068;4.414;2024-01-30T09:41:24;4.68;;;1.55;;
26965;SDS011;14522;52.068;4.414;2024-01-30T09:43:51;5.57;;;1.08;;
26965;SDS011;14522;52.068;4.414;2024-01-30T09:46:19;7.68;;;1.40;;
26965;SDS011;14522;52.068;4.414;2024-01-30T09:48:47;10.25;;;1.33;;
26965;SDS011;14522;52.068;4.414;2024-01-30T09:51:15;5.75;;;1.40;;
26965;SDS011;14522;52.068;4.414;2024-01-30T09:53:42;10.50;;;1.23;;
26965;SDS011;14522;52.068;4.414;2024-01-30T09:56:10;7.32;;;1.30;;
26965;SDS011;14522;52.068;4.414;2024-01-30T09:58:37;5.40;;;1.00;;
26965;SDS011;14522;52.068;4.414;2024-01-30T10:01:06;6.90;;;1.63;;
26965;SDS011;14522;52.068;4.414;2024-01-30T10:03:32;5.50;;;1.10;;
26965;SDS011;14522;52.068;4.414;2024-01-30T10:05:59;6.07;;;1.38;;
26965;SDS011;14522;52.068;4.414;2024-01-30T10:08:26;4.68;;;0.80;;
26965;SDS011;14522;52.068;4.414;2024-01-30T10:10:52;6.35;;;0.90;;
26965;SDS011;14522;52.068;4.414;2024-01-30T10:13:19;3.90;;;0.60;;
26965;SDS011;14522;52.068;4.414;2024-01-30T10:15:47;6.15;;;0.88;;
26965;SDS011;14522;52.068;4.414;2024-01-30T10:18:13;8.27;;;0.82;;
26965;SDS011;14522;52.068;4.414;2024-01-30T10:20:40;4.95;;;0.65;;
26965;SDS011;14522;52.068;4.414;2024-01-30T10:23:06;7.07;;;0.90;;
26965;SDS011;14522;52.068;4.414;2024-01-30T10:25:34;5.47;;;0.90;;
26965;SDS011;14522;52.068;4.414;2024-01-30T10:28:00;5.45;;;0.80;;
26965;SDS011;14522;52.068;4.414;2024-01-30T10:30:27;6.72;;;0.90;;
26965;SDS011;14522;52.068;4.414;2024-01-30T10:32:54;8.45;;;1.10;;
26965;SDS011;14522;52.068;4.414;2024-01-30T10:35:20;4.22;;;0.70;;
26965;SDS011;14522;52.068;4.414;2024-01-30T10:37:47;4.72;;;0.95;;
26965;SDS011;14522;52.068;4.414;2024-01-30T10:40:14;6.07;;;0.80;;
26965;SDS011;14522;52.068;4.414;2024-01-30T10:42:42;3.42;;;0.80;;
26965;SDS011;14522;52.068;4.414;2024-01-30T10:45:10;7.82;;;0.80;;
26965;SDS011;14522;52.068;4.414;2024-01-30T10:47:52;5.60;;;0.77;;
26965;SDS011;14522;52.068;4.414;2024-01-30T10:50:19;4.30;;;0.85;;
26965;SDS011;14522;52.068;4.414;2024-01-30T10:52:46;7.53;;;0.82;;
26965;SDS011;14522;52.068;4.414;2024-01-30T10:55:13;6.53;;;1.50;;
26965;SDS011;14522;52.068;4.414;2024-01-30T10:57:40;5.13;;;1.20;;
26965;SDS011;14522;52.068;4.414;2024-01-30T11:00:07;4.50;;;0.82;;
26965;SDS011;14522;52.068;4.414;2024-01-30T11:02:41;4.97;;;1.20;;
26965;SDS011;14522;52.068;4.414;2024-01-30T11:05:08;11.75;;;1.55;;
26965;SDS011;14522;52.068;4.414;2024-01-30T11:07:35;4.38;;;0.80;;
26965;SDS011;14522;52.068;4.414;2024-01-30T11:10:02;9.25;;;1.08;;
26965;SDS011;14522;52.068;4.414;2024-01-30T11:12:30;5.78;;;1.00;;
26965;SDS011;14522;52.068;4.414;2024-01-30T11:15:17;6.22;;;1.25;;
26965;SDS011;14522;52.068;4.414;2024-01-30T11:22:53;9.68;;;1.77;;
26965;SDS011;14522;52.068;4.414;2024-01-30T11:25:20;7.03;;;0.82;;
26965;SDS011;14522;52.068;4.414;2024-01-30T11:27:49;7.50;;;0.95;;
26965;SDS011;14522;52.068;4.414;2024-01-30T11:30:22;9.90;;;1.42;;
26965;SDS011;14522;52.068;4.414;2024-01-30T11:32:59;6.68;;;1.20;;
26965;SDS011;14522;52.068;4.414;2024-01-30T11:35:27;6.97;;;1.10;;
26965;SDS011;14522;52.068;4.414;2024-01-30T11:37:53;11.07;;;1.48;;
26965;SDS011;14522;52.068;4.414;2024-01-30T11:40:20;7.63;;;1.67;;
26965;SDS011;14522;52.068;4.414;2024-01-30T11:42:47;3.63;;;0.85;;
26965;SDS011;14522;52.068;4.414;2024-01-30T11:45:15;5.85;;;0.93;;
26965;SDS011;14522;52.068;4.414;2024-01-30T11:47:42;9.75;;;1.20;;
26965;SDS011;14522;52.068;4.414;2024-01-30T11:50:10;6.75;;;1.00;;
26965;SDS011;14522;52.068;4.414;2024-01-30T11:52:40;11.30;;;1.13;;
26965;SDS011;14522;52.068;4.414;2024-01-30T11:55:07;6.60;;;1.33;;
26965;SDS011;14522;52.068;4.414;2024-01-30T11:57:34;6.15;;;1.20;;
26965;SDS011;14522;52.068;4.414;2024-01-30T12:00:04;8.95;;;1.40;;
26965;SDS011;14522;52.068;4.414;2024-01-30T12:02:36;7.97;;;1.27;;
26965;SDS011;14522;52.068;4.414;2024-01-30T12:05:06;10.63;;;1.30;;
26965;SDS011;14522;52.068;4.414;2024-01-30T12:07:33;9.38;;;1.65;;
26965;SDS011;14522;52.068;4.414;2024-01-30T12:09:59;5.75;;;0.95;;
26965;SDS011;14522;52.068;4.414;2024-01-30T12:12:26;7.40;;;1.48;;
26965;SDS011;14522;52.068;4.414;2024-01-30T12:14:53;7.07;;;1.20;;
26965;SDS011;14522;52.068;4.414;2024-01-30T12:17:23;6.43;;;1.13;;
26965;SDS011;14522;52.068;4.414;2024-01-30T12:19:50;9.18;;;0.90;;
26965;SDS011;14522;52.068;4.414;2024-01-30T12:22:16;6.45;;;1.33;;
26965;SDS011;14522;52.068;4.414;2024-01-30T12:24:43;9.70;;;1.45;;
26965;SDS011;14522;52.068;4.414;2024-01-30T12:27:09;7.38;;;1.13;;
26965;SDS011;14522;52.068;4.414;2024-01-30T12:29:36;8.82;;;1.30;;
26965;SDS011;14522;52.068;4.414;2024-01-30T12:32:06;6.40;;;0.88;;
26965;SDS011;14522;52.068;4.414;2024-01-30T12:34:32;6.47;;;0.90;;
26965;SDS011;14522;52.068;4.414;2024-01-30T12:37:15;4.40;;;1.00;;
26965;SDS011;14522;52.068;4.414;2024-01-30T12:39:46;3.95;;;0.98;;
26965;SDS011;14522;52.068;4.414;2024-01-30T12:42:12;7.32;;;1.20;;
26965;SDS011;14522;52.068;4.414;2024-01-30T12:44:39;8.18;;;1.30;;
26965;SDS011;14522;52.068;4.414;2024-01-30T12:47:08;7.90;;;1.40;;
26965;SDS011;14522;52.068;4.414;2024-01-30T12:49:35;12.48;;;1.50;;
26965;SDS011;14522;52.068;4.414;2024-01-30T12:52:01;9.23;;;1.52;;
26965;SDS011;14522;52.068;4.414;2024-01-30T12:54:28;8.02;;;1.92;;
26965;SDS011;14522;52.068;4.414;2024-01-30T12:56:54;5.90;;;1.10;;
26965;SDS011;14522;52.068;4.414;2024-01-30T12:59:22;5.18;;;1.27;;
26965;SDS011;14522;52.068;4.414;2024-01-30T13:01:49;4.82;;;0.88;;
26965;SDS011;14522;52.068;4.414;2024-01-30T13:04:15;4.47;;;1.20;;
26965;SDS011;14522;52.068;4.414;2024-01-30T13:06:42;6.80;;;1.42;;
26965;SDS011;14522;52.068;4.414;2024-01-30T13:09:09;5.03;;;1.00;;
26965;SDS011;14522;52.068;4.414;2024-01-30T13:11:35;4.38;;;1.05;;
26965;SDS011;14522;52.068;4.414;2024-01-30T13:14:02;8.93;;;1.63;;
26965;SDS011;14522;52.068;4.414;2024-01-30T13:16:29;7.50;;;1.10;;
26965;SDS011;14522;52.068;4.414;2024-01-30T13:18:56;5.63;;;1.10;;
26965;SDS011;14522;52.068;4.414;2024-01-30T13:21:22;7.15;;;1.42;;
26965;SDS011;14522;52.068;4.414;2024-01-30T13:23:49;2.83;;;1.10;;
26965;SDS011;14522;52.068;4.414;2024-01-30T13:26:19;5.13;;;1.48;;
26965;SDS011;14522;52.068;4.414;2024-01-30T13:28:45;5.05;;;1.48;;
26965;SDS011;14522;52.068;4.414;2024-01-30T13:31:14;7.43;;;1.40;;
26965;SDS011;14522;52.068;4.414;2024-01-30T13:33:41;7.88;;;1.35;;
26965;SDS011;14522;52.068;4.414;2024-01-30T13:36:07;7.85;;;1.60;;
26965;SDS011;14522;52.068;4.414;2024-01-30T13:38:34;4.10;;;1.10;;
26965;SDS011;14522;52.068;4.414;2024-01-30T13:41:01;6.75;;;1.80;;
26965;SDS011;14522;52.068;4.414;2024-01-30T13:43:27;8.20;;;1.35;;
26965;SDS011;14522;52.068;4.414;2024-01-30T13:45:54;6.55;;;1.80;;
26965;SDS011;14522;52.068;4.414;2024-01-30T13:48:20;5.82;;;1.38;;
26965;SDS011;14522;52.068;4.414;2024-01-30T13:50:48;5.70;;;1.52;;
26965;SDS011;14522;52.068;4.414;2024-01-30T13:53:14;7.75;;;1.40;;
26965;SDS011;14522;52.068;4.414;2024-01-30T13:55:41;7.18;;;1.55;;
26965;SDS011;14522;52.068;4.414;2024-01-30T13:58:07;7.45;;;1.60;;
26965;SDS011;14522;52.068;4.414;2024-01-30T14:00:34;7.03;;;1.60;;
26965;SDS011;14522;52.068;4.414;2024-01-30T14:03:00;7.78;;;1.55;;
26965;SDS011;14522;52.068;4.414;2024-01-30T14:05:27;5.78;;;1.13;;
26965;SDS011;14522;52.068;4.414;2024-01-30T14:07:54;4.30;;;1.60;;
26965;SDS011;14522;52.068;4.414;2024-01-30T14:10:21;4.15;;;0.80;;
26965;SDS011;14522;52.068;4.414;2024-01-30T14:12:48;2.88;;;0.90;;
26965;SDS011;14522;52.068;4.414;2024-01-30T14:15:15;3.97;;;1.40;;
26965;SDS011;14522;52.068;4.414;2024-01-30T14:17:53;2.92;;;0.75;;
26965;SDS011;14522;52.068;4.414;2024-01-30T14:20:20;5.90;;;0.90;;
26965;SDS011;14522;52.068;4.414;2024-01-30T14:22:47;1.60;;;0.80;;
26965;SDS011;14522;52.068;4.414;2024-01-30T14:25:13;2.50;;;0.95;;
26965;SDS011;14522;52.068;4.414;2024-01-30T14:27:40;2.33;;;0.70;;
26965;SDS011;14522;52.068;4.414;2024-01-30T14:30:07;2.58;;;0.95;;
26965;SDS011;14522;52.068;4.414;2024-01-30T14:32:36;4.90;;;1.13;;
26965;SDS011;14522;52.068;4.414;2024-01-30T14:35:04;1.52;;;0.80;;
26965;SDS011;14522;52.068;4.414;2024-01-30T14:37:31;3.75;;;0.98;;
26965;SDS011;14522;52.068;4.414;2024-01-30T14:39:58;4.05;;;1.17;;
26965;SDS011;14522;52.068;4.414;2024-01-30T14:42:24;5.10;;;1.30;;
26965;SDS011;14522;52.068;4.414;2024-01-30T14:44:51;2.13;;;0.93;;
26965;SDS011;14522;52.068;4.414;2024-01-30T14:47:17;3.17;;;1.17;;